createdAt,value
2022-10-25T00:01:20.770Z,1.47
2022-10-25T00:03:49.125Z,1.50
2022-10-25T00:06:17.353Z,1.50
2022-10-25T00:08:45.399Z,1.30
2022-10-25T00:11:20.281Z,1.20
2022-10-25T00:13:50.514Z,1.30
2022-10-25T00:16:21.689Z,1.67
2022-10-25T00:18:50.122Z,2.03
2022-10-25T00:21:18.403Z,1.63
2022-10-25T00:23:46.849Z,1.60
2022-10-25T00:26:16.390Z,1.03
2022-10-25T00:28:44.529Z,1.30
2022-10-25T00:31:14.921Z,1.37
2022-10-25T00:33:44.203Z,1.40
2022-10-25T00:36:14.474Z,1.50
2022-10-25T00:38:43.006Z,1.30
2022-10-25T00:41:11.377Z,1.10
2022-10-25T00:43:42.971Z,1.40
2022-10-25T00:46:15.114Z,1.30
2022-10-25T00:48:47.577Z,1.27
2022-10-25T00:51:15.756Z,1.37
2022-10-25T00:53:44.192Z,1.20
2022-10-25T00:56:21.778Z,1.30
2022-10-25T00:58:56.423Z,1.20
2022-10-25T01:01:25.790Z,1.60
2022-10-25T01:03:57.299Z,1.10
2022-10-25T01:06:32.293Z,1.33
2022-10-25T01:09:01.553Z,1.10
2022-10-25T01:11:29.796Z,2.43
2022-10-25T01:13:59.801Z,1.23
2022-10-25T01:16:39.792Z,1.33
2022-10-25T01:19:30.119Z,1.17
2022-10-25T01:22:04.999Z,1.23
2022-10-25T01:25:09.510Z,0.93
2022-10-25T01:27:59.686Z,1.23
2022-10-25T01:30:50.887Z,1.43
2022-10-25T01:33:24.339Z,1.20
2022-10-25T01:36:02.111Z,1.47
2022-10-25T01:38:40.171Z,1.03
2022-10-25T01:41:19.421Z,1.07
2022-10-25T01:43:58.213Z,1.57
2022-10-25T01:46:32.735Z,1.30
2022-10-25T01:49:04.727Z,1.20
2022-10-25T01:51:36.275Z,1.47
2022-10-25T01:54:04.908Z,1.40
2022-10-25T01:56:40.626Z,1.40
2022-10-25T01:59:31.689Z,1.60
2022-10-25T02:02:08.887Z,1.23
2022-10-25T02:04:47.064Z,1.40
2022-10-25T02:07:23.164Z,1.67
2022-10-25T02:10:01.291Z,1.60
2022-10-25T02:12:33.011Z,1.37
2022-10-25T02:15:09.528Z,1.30
2022-10-25T02:17:45.020Z,1.80
2022-10-25T02:20:18.754Z,1.27
2022-10-25T02:22:48.197Z,1.20
2022-10-25T02:25:17.155Z,1.50
2022-10-25T02:27:46.941Z,1.70
2022-10-25T02:30:15.491Z,1.47
2022-10-25T02:32:45.049Z,1.50
2022-10-25T02:35:16.275Z,1.93
2022-10-25T02:37:44.504Z,1.23
2022-10-25T02:40:13.269Z,1.20
2022-10-25T02:42:41.582Z,1.00
2022-10-25T02:45:10.369Z,1.30
2022-10-25T02:47:38.467Z,1.00
2022-10-25T02:50:08.447Z,1.60
2022-10-25T02:52:36.494Z,1.10
2022-10-25T02:55:04.919Z,1.10
2022-10-25T02:57:34.564Z,1.10
2022-10-25T03:00:02.818Z,1.43
2022-10-25T03:02:30.871Z,1.10
2022-10-25T03:04:58.872Z,1.57
2022-10-25T03:07:28.258Z,1.03
2022-10-25T03:09:56.349Z,1.10
2022-10-25T03:12:24.443Z,1.30
2022-10-25T03:14:52.497Z,1.53
2022-10-25T03:17:20.589Z,1.40
2022-10-25T03:19:48.634Z,1.60
2022-10-25T03:22:16.638Z,2.07
2022-10-25T03:24:45.990Z,1.70
2022-10-25T03:27:14.006Z,1.47
2022-10-25T03:29:42.001Z,1.50
2022-10-25T03:32:10.335Z,1.60
2022-10-25T03:34:38.327Z,1.37
2022-10-25T03:37:06.317Z,1.20
2022-10-25T03:39:34.314Z,1.53
2022-10-25T03:42:03.717Z,1.30
2022-10-25T03:44:31.721Z,1.40
2022-10-25T03:46:59.709Z,1.40
2022-10-25T03:49:27.703Z,1.60
2022-10-25T03:51:57.957Z,1.90
2022-10-25T03:54:29.491Z,1.50
2022-10-25T03:56:57.654Z,1.47
2022-10-25T03:59:27.777Z,1.70
2022-10-25T04:01:55.941Z,1.53
2022-10-25T04:04:23.987Z,1.80
2022-10-25T04:06:52.010Z,1.80
2022-10-25T04:09:20.039Z,1.80
2022-10-25T04:11:48.029Z,2.47
2022-10-25T04:14:16.057Z,2.47
2022-10-25T04:16:45.414Z,2.63
2022-10-25T04:19:13.574Z,2.80
2022-10-25T04:21:41.956Z,2.77
2022-10-25T04:24:09.999Z,3.13
2022-10-25T04:26:38.104Z,2.53
2022-10-25T04:29:07.059Z,2.37
2022-10-25T04:31:35.135Z,3.00
2022-10-25T04:34:04.899Z,2.97
2022-10-25T04:36:33.042Z,2.67
2022-10-25T04:39:01.139Z,2.63
2022-10-25T04:41:29.136Z,2.90
2022-10-25T04:43:57.129Z,2.77
2022-10-25T04:46:25.155Z,3.13
2022-10-25T04:48:53.171Z,2.80
2022-10-25T04:51:22.526Z,2.63
2022-10-25T04:53:50.537Z,2.80
2022-10-25T04:56:18.531Z,2.83
2022-10-25T04:58:46.531Z,3.30
2022-10-25T05:01:17.415Z,2.67
2022-10-25T05:03:45.467Z,2.60
2022-10-25T05:06:15.036Z,2.47
2022-10-25T05:08:46.501Z,2.73
2022-10-25T05:11:15.986Z,2.60
2022-10-25T05:13:44.961Z,3.27
2022-10-25T05:16:17.518Z,2.60
2022-10-25T05:18:46.542Z,2.30
2022-10-25T05:21:15.756Z,2.30
2022-10-25T05:23:45.925Z,2.30
2022-10-25T05:26:16.104Z,2.77
2022-10-25T05:28:45.590Z,1.90
2022-10-25T05:31:16.062Z,1.80
2022-10-25T05:33:45.139Z,2.47
2022-10-25T05:36:14.405Z,2.63
2022-10-25T05:38:42.983Z,2.37
2022-10-25T05:41:14.053Z,2.40
2022-10-25T05:43:42.984Z,2.23
2022-10-25T05:46:13.510Z,2.00
2022-10-25T05:48:47.292Z,2.10
2022-10-25T05:51:33.766Z,2.20
2022-10-25T05:54:04.264Z,1.97
2022-10-25T05:56:34.902Z,2.57
2022-10-25T05:59:06.778Z,2.37
2022-10-25T06:01:34.915Z,2.73
2022-10-25T06:04:03.133Z,2.60
2022-10-25T06:06:31.202Z,2.70
2022-10-25T06:09:00.422Z,1.90
2022-10-25T06:11:29.572Z,1.97
2022-10-25T06:13:58.980Z,2.20
2022-10-25T06:16:27.176Z,1.90
2022-10-25T06:18:55.239Z,2.50
2022-10-25T06:21:25.152Z,2.47
2022-10-25T06:23:53.977Z,2.80
2022-10-25T06:26:24.539Z,2.90
2022-10-25T06:28:54.331Z,3.47
2022-10-25T06:31:24.597Z,3.50
2022-10-25T06:33:53.108Z,3.77
2022-10-25T06:36:22.819Z,4.60
2022-10-25T06:38:51.768Z,3.40
2022-10-25T06:41:21.478Z,3.73
2022-10-25T06:43:50.254Z,4.80
2022-10-25T06:46:24.497Z,4.10
2022-10-25T06:48:53.794Z,4.20
2022-10-25T06:51:22.644Z,3.83
2022-10-25T06:53:54.845Z,3.90
2022-10-25T06:56:23.695Z,3.33
2022-10-25T06:58:52.379Z,2.70
2022-10-25T07:01:23.464Z,2.97
2022-10-25T07:03:53.895Z,3.60
2022-10-25T07:06:25.270Z,2.57
2022-10-25T07:08:55.731Z,2.57
2022-10-25T07:11:25.801Z,2.17
2022-10-25T07:13:53.921Z,3.40
2022-10-25T07:16:22.722Z,2.10
2022-10-25T07:18:52.499Z,2.13
2022-10-25T07:21:23.114Z,2.93
2022-10-25T07:23:52.050Z,2.50
2022-10-25T07:26:22.717Z,2.33
2022-10-25T07:28:52.702Z,2.27
2022-10-25T07:31:22.322Z,2.90
2022-10-25T07:33:52.813Z,2.90
2022-10-25T07:36:21.476Z,2.40
2022-10-25T07:38:49.533Z,3.10
2022-10-25T07:41:17.587Z,2.70
2022-10-25T07:43:45.940Z,2.13
2022-10-25T07:46:13.956Z,3.03
2022-10-25T07:48:42.027Z,2.60
2022-10-25T07:51:14.222Z,3.07
2022-10-25T07:53:42.635Z,2.50
2022-10-25T07:56:16.155Z,2.83
2022-10-25T07:58:46.940Z,2.37
2022-10-25T08:01:20.745Z,2.47
2022-10-25T08:03:48.774Z,2.10
2022-10-25T08:06:18.486Z,2.23
2022-10-25T08:08:46.640Z,3.40
2022-10-25T08:11:14.923Z,2.17
2022-10-25T08:13:42.959Z,2.20
2022-10-25T08:16:10.994Z,2.37
2022-10-25T08:18:38.971Z,2.30
2022-10-25T08:21:07.773Z,2.43
2022-10-25T08:23:37.141Z,2.00
2022-10-25T08:26:05.227Z,1.90
2022-10-25T08:28:33.383Z,1.83
2022-10-25T08:31:02.082Z,2.03
2022-10-25T08:33:30.914Z,2.10
2022-10-25T08:36:01.629Z,2.83
2022-10-25T08:38:29.728Z,3.03
2022-10-25T08:41:06.968Z,3.00
2022-10-25T08:43:51.573Z,1.70
2022-10-25T08:46:23.932Z,1.90
2022-10-25T08:49:03.007Z,2.00
2022-10-25T08:51:34.855Z,2.27
2022-10-25T08:54:07.502Z,1.77
2022-10-25T08:56:42.692Z,1.30
2022-10-25T08:59:29.544Z,2.20
2022-10-25T09:02:00.228Z,1.90
2022-10-25T09:04:30.796Z,1.50
2022-10-25T09:07:10.260Z,1.47
2022-10-25T09:09:48.786Z,2.10
2022-10-25T09:12:25.973Z,2.40
2022-10-25T09:15:02.801Z,1.93
2022-10-25T09:17:37.661Z,1.90
2022-10-25T09:20:07.650Z,1.93
2022-10-25T09:22:46.075Z,1.97
2022-10-25T09:25:21.852Z,2.10
2022-10-25T09:28:00.114Z,2.13
2022-10-25T09:30:30.929Z,1.90
2022-10-25T09:33:02.290Z,2.07
2022-10-25T09:35:36.052Z,2.20
2022-10-25T09:38:12.253Z,2.30
2022-10-25T09:40:47.983Z,1.90
2022-10-25T09:43:23.351Z,2.23
2022-10-25T09:45:54.226Z,2.30
2022-10-25T09:48:25.751Z,1.67
2022-10-25T09:50:59.532Z,2.20
2022-10-25T09:53:27.599Z,2.03
2022-10-25T09:55:57.091Z,2.37
2022-10-25T09:58:30.346Z,1.90
2022-10-25T10:01:01.703Z,3.00
2022-10-25T10:03:31.901Z,1.80
2022-10-25T10:06:02.994Z,2.10
2022-10-25T10:08:35.143Z,1.97
2022-10-25T10:11:04.832Z,1.83
2022-10-25T10:13:40.370Z,2.23
2022-10-25T10:16:20.578Z,1.70
2022-10-25T10:18:48.799Z,1.73
2022-10-25T10:21:20.120Z,2.27
2022-10-25T10:23:52.337Z,1.80
2022-10-25T10:26:25.465Z,2.30
2022-10-25T10:29:08.809Z,1.73
2022-10-25T10:31:39.052Z,2.13
2022-10-25T10:34:21.341Z,2.67
2022-10-25T10:37:01.479Z,2.53
2022-10-25T10:39:29.477Z,2.43
2022-10-25T10:42:03.295Z,2.50
2022-10-25T10:44:34.836Z,2.67
2022-10-25T10:47:10.833Z,2.23
2022-10-25T10:49:41.669Z,3.33
2022-10-25T10:52:28.590Z,2.37
2022-10-25T10:54:57.664Z,2.33
2022-10-25T10:57:32.261Z,2.30
2022-10-25T11:00:02.506Z,1.73
2022-10-25T11:02:41.940Z,3.03
2022-10-25T11:05:22.117Z,2.10
2022-10-25T11:07:56.306Z,2.30
2022-10-25T11:10:30.219Z,1.70
2022-10-25T11:13:12.937Z,1.63
2022-10-25T11:16:25.747Z,2.30
2022-10-25T11:19:07.788Z,1.70
2022-10-25T11:21:48.111Z,1.30
2022-10-25T11:24:26.936Z,1.30
2022-10-25T11:27:05.082Z,1.20
2022-10-25T11:29:46.930Z,1.80
2022-10-25T11:32:40.186Z,1.20
2022-10-25T11:35:17.547Z,1.43
2022-10-25T11:37:52.143Z,0.90
2022-10-25T11:40:22.986Z,1.40
2022-10-25T11:43:02.482Z,0.93
2022-10-25T11:45:39.376Z,0.93
2022-10-25T11:48:28.293Z,1.30
2022-10-25T11:51:07.407Z,1.17
2022-10-25T11:54:01.778Z,0.90
2022-10-25T11:56:35.332Z,1.20
2022-10-25T11:59:14.664Z,1.40
2022-10-25T12:01:57.092Z,1.73
2022-10-25T12:04:46.898Z,0.90
2022-10-25T12:07:20.208Z,1.20
2022-10-25T12:09:59.383Z,1.17
2022-10-25T12:12:36.488Z,1.30
2022-10-25T12:15:04.994Z,1.20
2022-10-25T12:17:35.418Z,1.17
2022-10-25T12:20:07.960Z,1.13
2022-10-25T12:22:39.645Z,1.40
2022-10-25T12:25:15.550Z,1.10
2022-10-25T12:27:47.165Z,0.93
2022-10-25T12:30:17.678Z,1.17
2022-10-25T12:32:52.266Z,1.00
2022-10-25T12:35:24.653Z,1.00
2022-10-25T12:37:58.832Z,0.90
2022-10-25T12:40:29.066Z,0.90
2022-10-25T12:43:01.799Z,0.90
2022-10-25T12:45:48.568Z,1.03
2022-10-25T12:48:45.479Z,0.90
2022-10-25T12:51:32.895Z,1.20
2022-10-25T12:54:13.455Z,1.17
2022-10-25T12:56:55.151Z,0.80
2022-10-25T12:59:45.412Z,0.80
2022-10-25T13:02:49.149Z,1.10
2022-10-25T13:06:03.178Z,0.83
2022-10-25T13:08:33.622Z,0.83
2022-10-25T13:11:04.861Z,1.00
2022-10-25T13:13:34.557Z,1.00
2022-10-25T13:16:04.784Z,1.00
2022-10-25T13:18:45.136Z,0.83
2022-10-25T13:21:14.895Z,0.97
2022-10-25T13:24:00.647Z,1.33
2022-10-25T13:26:34.304Z,1.30
2022-10-25T13:29:04.798Z,0.77
2022-10-25T13:31:49.135Z,1.10
2022-10-25T13:34:31.791Z,0.93
2022-10-25T13:37:00.934Z,0.80
2022-10-25T13:39:33.651Z,0.70
2022-10-25T13:42:09.984Z,0.80
2022-10-25T13:44:40.202Z,1.07
2022-10-25T13:47:32.623Z,1.03
2022-10-25T13:50:01.198Z,1.00
2022-10-25T13:52:33.203Z,1.10
2022-10-25T13:55:05.954Z,1.10
2022-10-25T13:57:52.573Z,0.87
2022-10-25T14:00:32.095Z,1.10
2022-10-25T14:03:35.646Z,1.10
2022-10-25T14:06:22.781Z,1.13
2022-10-25T14:09:08.688Z,1.03
2022-10-25T14:11:42.013Z,1.10
2022-10-25T14:14:20.596Z,2.00
2022-10-25T14:17:01.361Z,1.23
2022-10-25T14:19:37.739Z,1.10
2022-10-25T14:22:15.003Z,1.17
2022-10-25T14:24:44.598Z,1.57
2022-10-25T14:27:31.005Z,1.00
2022-10-25T14:30:22.392Z,1.30
2022-10-25T14:32:52.561Z,1.00
2022-10-25T14:35:21.361Z,1.00
2022-10-25T14:37:49.571Z,0.93
2022-10-25T14:40:20.336Z,1.20
2022-10-25T14:42:50.128Z,1.00
2022-10-25T14:45:21.663Z,1.03
2022-10-25T14:47:50.040Z,1.13
2022-10-25T14:50:21.902Z,1.00
2022-10-25T14:52:51.424Z,1.07
2022-10-25T14:55:30.250Z,1.23
2022-10-25T14:58:02.230Z,0.90
2022-10-25T15:00:30.758Z,0.97
2022-10-25T15:03:02.225Z,0.83
2022-10-25T15:05:30.331Z,1.00
2022-10-25T15:07:59.983Z,1.17
2022-10-25T15:10:36.649Z,1.23
2022-10-25T15:13:07.562Z,1.30
2022-10-25T15:15:40.483Z,1.03
2022-10-25T15:18:22.511Z,1.00
2022-10-25T15:20:51.174Z,1.13
2022-10-25T15:23:22.069Z,1.17
2022-10-25T15:25:50.144Z,1.42
2022-10-25T15:28:20.028Z,1.30
2022-10-25T15:31:01.566Z,1.00
2022-10-25T15:33:32.202Z,1.00
2022-10-25T15:36:02.178Z,1.50
2022-10-25T15:38:54.460Z,1.67
2022-10-25T15:41:20.410Z,1.40
2022-10-25T15:43:50.038Z,1.20
2022-10-25T15:46:25.735Z,1.47
2022-10-25T15:48:53.965Z,3.00
2022-10-25T15:51:23.502Z,1.43
2022-10-25T15:53:53.296Z,1.30
2022-10-25T15:56:22.287Z,1.30
2022-10-25T15:58:51.741Z,1.53
2022-10-25T16:01:20.303Z,1.30
2022-10-25T16:03:48.414Z,1.40
2022-10-25T16:06:16.457Z,1.23
2022-10-25T16:08:44.438Z,1.17
2022-10-25T16:11:16.352Z,1.30
2022-10-25T16:13:46.895Z,1.33
2022-10-25T16:16:39.298Z,1.27
2022-10-25T16:19:12.567Z,1.10
2022-10-25T16:21:40.537Z,1.40
2022-10-25T16:24:08.695Z,1.40
2022-10-25T16:26:40.943Z,1.33
2022-10-25T16:29:15.261Z,1.43
2022-10-25T16:31:44.928Z,1.60
2022-10-25T16:34:15.425Z,1.40
2022-10-25T16:36:43.436Z,1.20
2022-10-25T16:39:12.259Z,1.27
2022-10-25T16:41:42.204Z,1.27
2022-10-25T16:44:11.907Z,1.67
2022-10-25T16:46:40.110Z,1.30
2022-10-25T16:49:10.106Z,1.70
2022-10-25T16:51:40.626Z,1.87
2022-10-25T16:54:09.304Z,1.40
2022-10-25T16:56:37.555Z,1.07
2022-10-25T16:59:05.555Z,1.20
2022-10-25T17:01:37.982Z,1.27
2022-10-25T17:04:11.416Z,1.27
2022-10-25T17:06:42.049Z,1.03
2022-10-25T17:09:10.903Z,1.20
2022-10-25T17:11:39.223Z,1.20
2022-10-25T17:14:09.573Z,1.00
2022-10-25T17:16:39.625Z,1.13
2022-10-25T17:19:09.887Z,1.10
2022-10-25T17:21:38.168Z,1.30
2022-10-25T17:24:08.409Z,1.60
2022-10-25T17:26:36.532Z,1.10
2022-10-25T17:29:04.635Z,1.20
2022-10-25T17:31:33.111Z,1.03
2022-10-25T17:34:01.446Z,1.40
2022-10-25T17:36:32.222Z,1.40
2022-10-25T17:39:00.713Z,1.70
2022-10-25T17:41:28.854Z,0.97
2022-10-25T17:43:57.137Z,1.30
2022-10-25T17:46:27.625Z,1.17
2022-10-25T17:48:57.251Z,1.13
2022-10-25T17:51:25.487Z,1.57
2022-10-25T17:53:55.981Z,1.23
2022-10-25T17:56:25.880Z,1.53
2022-10-25T17:58:55.412Z,1.63
2022-10-25T18:01:25.417Z,2.27
2022-10-25T18:03:55.129Z,2.40
2022-10-25T18:06:24.657Z,1.90
2022-10-25T18:08:55.269Z,2.00
2022-10-25T18:11:24.645Z,2.57
2022-10-25T18:13:54.802Z,2.43
2022-10-25T18:16:26.075Z,2.83
2022-10-25T18:18:54.263Z,2.70
2022-10-25T18:21:22.439Z,4.43
2022-10-25T18:23:51.228Z,3.80
2022-10-25T18:26:20.586Z,3.30
2022-10-25T18:28:50.057Z,3.23
2022-10-25T18:31:20.064Z,3.40
2022-10-25T18:33:48.799Z,3.53
2022-10-25T18:36:19.343Z,2.43
2022-10-25T18:38:48.135Z,2.37
2022-10-25T18:41:19.077Z,3.20
2022-10-25T18:43:48.881Z,3.80
2022-10-25T18:46:17.201Z,3.07
2022-10-25T18:48:46.019Z,3.30
2022-10-25T18:51:14.951Z,3.40
2022-10-25T18:53:43.006Z,3.03
2022-10-25T18:56:12.264Z,3.67
2022-10-25T18:58:40.631Z,2.60
2022-10-25T19:01:11.939Z,2.30
2022-10-25T19:03:40.639Z,1.80
2022-10-25T19:06:09.374Z,2.47
2022-10-25T19:08:38.370Z,2.40
2022-10-25T19:11:07.521Z,2.70
2022-10-25T19:13:36.130Z,2.67
2022-10-25T19:16:04.419Z,2.37
2022-10-25T19:18:35.100Z,2.60
2022-10-25T19:21:04.964Z,1.90
2022-10-25T19:23:33.475Z,2.47
2022-10-25T19:26:03.846Z,1.87
2022-10-25T19:28:32.268Z,1.80
2022-10-25T19:31:05.963Z,1.80
2022-10-25T19:33:35.660Z,2.10
2022-10-25T19:36:04.385Z,1.77
2022-10-25T19:38:32.420Z,1.53
2022-10-25T19:41:01.324Z,1.67
2022-10-25T19:43:29.903Z,2.10
2022-10-25T19:45:58.731Z,2.00
2022-10-25T19:48:28.410Z,2.00
2022-10-25T19:50:58.398Z,1.60
2022-10-25T19:53:26.399Z,1.80
2022-10-25T19:56:00.683Z,1.70
2022-10-25T19:58:28.958Z,1.63
2022-10-25T20:01:06.419Z,1.83
2022-10-25T20:03:34.957Z,1.97
2022-10-25T20:06:07.839Z,2.50
2022-10-25T20:08:37.892Z,3.20
2022-10-25T20:11:06.674Z,2.27
2022-10-25T20:13:34.760Z,3.30
2022-10-25T20:16:03.710Z,3.70
2022-10-25T20:18:33.649Z,3.57
2022-10-25T20:21:06.037Z,3.40
2022-10-25T20:23:34.855Z,4.03
2022-10-25T20:26:12.006Z,5.33
2022-10-25T20:28:40.087Z,4.50
2022-10-25T20:31:08.108Z,5.40
2022-10-25T20:33:36.117Z,4.47
2022-10-25T20:36:07.657Z,3.67
2022-10-25T20:38:36.800Z,3.47
2022-10-25T20:41:05.638Z,4.10
2022-10-25T20:43:34.562Z,3.17
2022-10-25T20:46:02.922Z,2.63
2022-10-25T20:48:31.639Z,2.87
2022-10-25T20:51:04.077Z,2.07
2022-10-25T20:53:36.936Z,1.60
2022-10-25T20:56:05.596Z,1.30
2022-10-25T20:58:34.777Z,1.63
2022-10-25T21:01:03.586Z,1.40
2022-10-25T21:03:32.832Z,1.57
2022-10-25T21:06:04.337Z,1.47
2022-10-25T21:08:33.275Z,1.53
2022-10-25T21:11:05.270Z,1.53
2022-10-25T21:13:34.791Z,1.40
2022-10-25T21:16:06.454Z,1.73
2022-10-25T21:18:34.479Z,1.30
2022-10-25T21:21:04.190Z,1.23
2022-10-25T21:23:32.299Z,1.10
2022-10-25T21:26:02.407Z,1.20
2022-10-25T21:28:33.943Z,1.27
2022-10-25T21:31:02.891Z,1.33
2022-10-25T21:33:31.082Z,1.50
2022-10-25T21:36:04.166Z,1.10
2022-10-25T21:38:32.191Z,1.00
2022-10-25T21:41:08.908Z,1.00
2022-10-25T21:43:37.154Z,1.00
2022-10-25T21:46:06.567Z,1.00
2022-10-25T21:48:35.601Z,1.07
2022-10-25T21:51:03.772Z,1.43
2022-10-25T21:53:32.091Z,1.00
2022-10-25T21:56:11.323Z,1.03
2022-10-25T21:58:39.913Z,1.00
2022-10-25T22:01:09.280Z,0.93
2022-10-25T22:03:37.478Z,1.30
2022-10-25T22:06:07.139Z,1.33
2022-10-25T22:08:35.494Z,1.07
2022-10-25T22:11:05.883Z,1.50
2022-10-25T22:13:35.922Z,1.40
2022-10-25T22:16:06.784Z,1.23
2022-10-25T22:18:35.281Z,1.20
2022-10-25T22:21:05.938Z,1.03
2022-10-25T22:23:34.581Z,1.20
2022-10-25T22:26:05.215Z,1.30
2022-10-25T22:28:38.232Z,1.17
2022-10-25T22:31:10.941Z,1.87
2022-10-25T22:33:39.124Z,1.00
2022-10-25T22:36:09.093Z,1.20
2022-10-25T22:38:37.936Z,1.30
2022-10-25T22:41:08.281Z,1.30
2022-10-25T22:43:38.345Z,1.20
2022-10-25T22:46:08.176Z,1.57
2022-10-25T22:48:37.388Z,1.40
2022-10-25T22:51:05.872Z,1.43
2022-10-25T22:53:35.420Z,1.70
2022-10-25T22:56:05.945Z,1.27
2022-10-25T22:58:35.845Z,1.63
2022-10-25T23:01:07.275Z,1.40
2022-10-25T23:03:36.426Z,1.30
2022-10-25T23:06:05.551Z,1.20
2022-10-25T23:08:34.012Z,1.33
2022-10-25T23:11:04.050Z,1.40
2022-10-25T23:13:33.604Z,1.47
2022-10-25T23:16:02.115Z,1.63
2022-10-25T23:18:32.081Z,1.50
2022-10-25T23:21:01.863Z,1.17
2022-10-25T23:23:34.140Z,1.13
2022-10-25T23:26:02.932Z,1.50
2022-10-25T23:28:32.162Z,1.30
2022-10-25T23:31:05.639Z,1.50
2022-10-25T23:33:35.241Z,1.67
2022-10-25T23:36:04.326Z,1.17
2022-10-25T23:38:32.883Z,1.30
2022-10-25T23:41:01.002Z,1.40
2022-10-25T23:43:29.552Z,1.20
2022-10-25T23:45:57.556Z,3.60
2022-10-25T23:48:25.666Z,1.27
2022-10-25T23:53:33.090Z,2.17
2022-10-25T23:56:01.774Z,1.30
2022-10-25T23:58:30.014Z,1.30
